sensor_id;sensor_type;location;lat;lon;timestamp;pressure;altitude;pressure_sealevel;temperature;humidity
5872;BME280;2962;51.312;7.378;2022-07-06T00:01:01;98259.19;;;12.48;100.00
5872;BME280;2962;51.312;7.378;2022-07-06T00:03:26;98268.03;;;12.41;100.00
5872;BME280;2962;51.312;7.378;2022-07-06T00:05:51;98255.66;;;12.28;100.00
5872;BME280;2962;51.312;7.378;2022-07-06T00:08:17;98265.59;;;12.36;100.00
5872;BME280;2962;51.312;7.378;2022-07-06T00:10:42;98268.00;;;12.21;100.00
5872;BME280;2962;51.312;7.378;2022-07-06T00:13:08;98257.22;;;12.09;100.00
5872;BME280;2962;51.312;7.378;2022-07-06T00:15:37;98263.94;;;12.12;100.00
5872;BME280;2962;51.312;7.378;2022-07-06T00:18:02;98264.72;;;12.12;100.00
5872;BME280;2962;51.312;7.378;2022-07-06T00:20:27;98270.03;;;12.25;100.00
5872;BME280;2962;51.312;7.378;2022-07-06T00:22:53;98271.75;;;12.33;100.00
5872;BME280;2962;51.312;7.378;2022-07-06T00:25:18;98274.00;;;12.46;100.00
5872;BME280;2962;51.312;7.378;2022-07-06T00:27:43;98262.22;;;12.42;100.00
5872;BME280;2962;51.312;7.378;2022-07-06T00:30:09;98272.63;;;12.56;100.00
5872;BME280;2962;51.312;7.378;2022-07-06T00:32:34;98271.19;;;12.62;100.00
5872;BME280;2962;51.312;7.378;2022-07-06T00:34:59;98273.06;;;12.58;100.00
5872;BME280;2962;51.312;7.378;2022-07-06T00:37:24;98270.25;;;12.55;100.00
5872;BME280;2962;51.312;7.378;2022-07-06T00:39:50;98271.03;;;12.55;100.00
5872;BME280;2962;51.312;7.378;2022-07-06T00:42:15;98257.59;;;12.46;100.00
5872;BME280;2962;51.312;7.378;2022-07-06T00:44:40;98266.97;;;12.45;100.00
5872;BME280;2962;51.312;7.378;2022-07-06T00:47:06;98266.16;;;12.45;100.00
5872;BME280;2962;51.312;7.378;2022-07-06T00:49:33;98271.56;;;12.41;100.00
5872;BME280;2962;51.312;7.378;2022-07-06T00:52:17;98269.69;;;12.26;100.00
5872;BME280;2962;51.312;7.378;2022-07-06T00:54:42;98277.28;;;12.17;100.00
5872;BME280;2962;51.312;7.378;2022-07-06T00:57:08;98276.81;;;12.11;100.00
5872;BME280;2962;51.312;7.378;2022-07-06T00:59:33;98267.00;;;12.10;100.00
5872;BME280;2962;51.312;7.378;2022-07-06T01:01:58;98267.84;;;11.95;100.00
5872;BME280;2962;51.312;7.378;2022-07-06T01:04:24;98270.16;;;11.93;100.00
5872;BME280;2962;51.312;7.378;2022-07-06T01:06:49;98261.19;;;11.77;100.00
5872;BME280;2962;51.312;7.378;2022-07-06T01:09:16;98265.88;;;11.60;100.00
5872;BME280;2962;51.312;7.378;2022-07-06T01:11:41;98270.63;;;11.63;100.00
5872;BME280;2962;51.312;7.378;2022-07-06T01:14:07;98274.34;;;11.55;100.00
5872;BME280;2962;51.312;7.378;2022-07-06T01:16:33;98271.53;;;11.52;100.00
5872;BME280;2962;51.312;7.378;2022-07-06T01:18:58;98264.69;;;11.42;100.00
5872;BME280;2962;51.312;7.378;2022-07-06T01:21:24;98272.31;;;11.36;100.00
5872;BME280;2962;51.312;7.378;2022-07-06T01:23:49;98273.47;;;11.35;100.00
5872;BME280;2962;51.312;7.378;2022-07-06T01:26:16;98272.78;;;11.22;100.00
5872;BME280;2962;51.312;7.378;2022-07-06T01:28:49;98269.00;;;11.11;100.00
5872;BME280;2962;51.312;7.378;2022-07-06T01:31:16;98269.69;;;11.08;100.00
5872;BME280;2962;51.312;7.378;2022-07-06T01:33:43;98273.31;;;11.12;100.00
5872;BME280;2962;51.312;7.378;2022-07-06T01:36:08;98276.03;;;11.12;100.00
5872;BME280;2962;51.312;7.378;2022-07-06T01:38:49;98269.88;;;10.99;100.00
5872;BME280;2962;51.312;7.378;2022-07-06T01:41:15;98276.03;;;11.12;100.00
5872;BME280;2962;51.312;7.378;2022-07-06T01:43:41;98268.53;;;11.09;100.00
5872;BME280;2962;51.312;7.378;2022-07-06T01:46:06;98276.81;;;11.29;100.00
5872;BME280;2962;51.312;7.378;2022-07-06T01:48:31;98272.16;;;11.29;100.00
5872;BME280;2962;51.312;7.378;2022-07-06T01:50:57;98274.97;;;11.33;100.00
5872;BME280;2962;51.312;7.378;2022-07-06T01:53:22;98261.50;;;11.24;100.00
5872;BME280;2962;51.312;7.378;2022-07-06T01:55:47;98276.81;;;11.29;100.00
5872;BME280;2962;51.312;7.378;2022-07-06T01:58:13;98273.47;;;11.19;100.00
5872;BME280;2962;51.312;7.378;2022-07-06T02:00:38;98262.38;;;11.12;100.00
5872;BME280;2962;51.312;7.378;2022-07-06T02:03:03;98264.41;;;11.15;100.00
5872;BME280;2962;51.312;7.378;2022-07-06T02:05:29;98272.59;;;11.15;100.00
5872;BME280;2962;51.312;7.378;2022-07-06T02:07:54;98265.91;;;11.13;100.00
5872;BME280;2962;51.312;7.378;2022-07-06T02:10:19;98257.91;;;11.04;100.00
5872;BME280;2962;51.312;7.378;2022-07-06T02:12:45;98261.16;;;11.10;100.00
5872;BME280;2962;51.312;7.378;2022-07-06T02:15:10;98272.41;;;11.08;100.00
5872;BME280;2962;51.312;7.378;2022-07-06T02:17:35;98263.69;;;11.03;100.00
5872;BME280;2962;51.312;7.378;2022-07-06T02:20:01;98257.03;;;11.00;100.00
5872;BME280;2962;51.312;7.378;2022-07-06T02:22:26;98265.63;;;11.02;100.00
5872;BME280;2962;51.312;7.378;2022-07-06T02:24:51;98269.16;;;11.03;100.00
5872;BME280;2962;51.312;7.378;2022-07-06T02:27:17;98274.00;;;11.09;100.00
5872;BME280;2962;51.312;7.378;2022-07-06T02:29:42;98266.19;;;11.08;100.00
5872;BME280;2962;51.312;7.378;2022-07-06T02:32:07;98256.94;;;11.12;100.00
5872;BME280;2962;51.312;7.378;2022-07-06T02:34:33;98264.06;;;11.17;100.00
5872;BME280;2962;51.312;7.378;2022-07-06T02:36:58;98271.19;;;11.21;100.00
5872;BME280;2962;51.312;7.378;2022-07-06T02:39:25;98265.72;;;11.21;100.00
5872;BME280;2962;51.312;7.378;2022-07-06T02:41:50;98267.25;;;11.19;100.00
5872;BME280;2962;51.312;7.378;2022-07-06T02:44:15;98275.75;;;11.17;100.00
5872;BME280;2962;51.312;7.378;2022-07-06T02:46:41;98267.16;;;11.15;100.00
5872;BME280;2962;51.312;7.378;2022-07-06T02:49:06;98268.91;;;11.08;100.00
5872;BME280;2962;51.312;7.378;2022-07-06T02:51:31;98264.50;;;11.03;100.00
5872;BME280;2962;51.312;7.378;2022-07-06T02:53:56;98268.72;;;11.00;100.00
5872;BME280;2962;51.312;7.378;2022-07-06T02:56:22;98270.38;;;10.89;100.00
5872;BME280;2962;51.312;7.378;2022-07-06T02:58:47;98270.00;;;10.91;100.00
5872;BME280;2962;51.312;7.378;2022-07-06T03:01:12;98270.81;;;10.91;100.00
5872;BME280;2962;51.312;7.378;2022-07-06T03:03:37;98269.41;;;10.82;100.00
5872;BME280;2962;51.312;7.378;2022-07-06T03:06:03;98277.47;;;10.78;100.00
5872;BME280;2962;51.312;7.378;2022-07-06T03:08:28;98272.38;;;10.77;100.00
5872;BME280;2962;51.312;7.378;2022-07-06T03:10:53;98269.66;;;10.77;100.00
5872;BME280;2962;51.312;7.378;2022-07-06T03:13:19;98276.69;;;10.78;100.00
5872;BME280;2962;51.312;7.378;2022-07-06T03:15:44;98278.63;;;10.77;100.00
5872;BME280;2962;51.312;7.378;2022-07-06T03:18:09;98284.06;;;10.77;100.00
5872;BME280;2962;51.312;7.378;2022-07-06T03:20:34;98284.88;;;10.78;100.00
5872;BME280;2962;51.312;7.378;2022-07-06T03:23:00;98281.25;;;10.73;100.00
5872;BME280;2962;51.312;7.378;2022-07-06T03:25:25;98285.47;;;10.71;100.00
5872;BME280;2962;51.312;7.378;2022-07-06T03:27:50;98284.66;;;10.70;100.00
5872;BME280;2962;51.312;7.378;2022-07-06T03:30:16;98286.88;;;10.65;100.00
5872;BME280;2962;51.312;7.378;2022-07-06T03:32:41;98296.91;;;10.48;100.00
5872;BME280;2962;51.312;7.378;2022-07-06T03:35:06;98301.03;;;10.42;100.00
5872;BME280;2962;51.312;7.378;2022-07-06T03:37:32;98283.59;;;10.31;100.00
5872;BME280;2962;51.312;7.378;2022-07-06T03:39:57;98287.47;;;10.30;100.00
5872;BME280;2962;51.312;7.378;2022-07-06T03:42:22;98291.88;;;10.22;100.00
5872;BME280;2962;51.312;7.378;2022-07-06T03:44:48;98300.38;;;10.21;100.00
5872;BME280;2962;51.312;7.378;2022-07-06T03:47:13;98300.28;;;10.17;100.00
5872;BME280;2962;51.312;7.378;2022-07-06T03:49:38;98294.03;;;10.17;100.00
5872;BME280;2962;51.312;7.378;2022-07-06T03:52:04;98297.78;;;10.12;100.00
5872;BME280;2962;51.312;7.378;2022-07-06T03:54:29;98293.94;;;10.13;100.00
5872;BME280;2962;51.312;7.378;2022-07-06T03:56:54;98297.78;;;10.12;100.00
5872;BME280;2962;51.312;7.378;2022-07-06T03:59:19;98289.97;;;10.11;100.00
5872;BME280;2962;51.312;7.378;2022-07-06T04:01:45;98289.88;;;10.07;100.00
5872;BME280;2962;51.312;7.378;2022-07-06T04:04:10;98289.97;;;10.11;100.00
5872;BME280;2962;51.312;7.378;2022-07-06T04:06:35;98297.13;;;10.15;100.00
5872;BME280;2962;51.312;7.378;2022-07-06T04:09:00;98295.28;;;10.19;100.00
5872;BME280;2962;51.312;7.378;2022-07-06T04:11:26;98290.16;;;10.18;100.00
5872;BME280;2962;51.312;7.378;2022-07-06T04:13:51;98296.41;;;10.18;100.00
5872;BME280;2962;51.312;7.378;2022-07-06T04:16:16;98298.34;;;10.30;100.00
5872;BME280;2962;51.312;7.378;2022-07-06T04:18:41;98306.06;;;10.28;100.00
5872;BME280;2962;51.312;7.378;2022-07-06T04:21:07;98303.34;;;10.28;100.00
5872;BME280;2962;51.312;7.378;2022-07-06T04:23:32;98292.81;;;10.26;100.00
5872;BME280;2962;51.312;7.378;2022-07-06T04:25:58;98299.34;;;10.38;100.00
5872;BME280;2962;51.312;7.378;2022-07-06T04:28:23;98301.81;;;10.43;100.00
5872;BME280;2962;51.312;7.378;2022-07-06T04:30:48;98298.75;;;10.44;100.00
5872;BME280;2962;51.312;7.378;2022-07-06T04:33:13;98309.06;;;10.51;100.00
5872;BME280;2962;51.312;7.378;2022-07-06T04:35:39;98294.97;;;10.49;100.00
5872;BME280;2962;51.312;7.378;2022-07-06T04:38:04;98305.78;;;10.73;100.00
5872;BME280;2962;51.312;7.378;2022-07-06T04:40:30;98306.97;;;10.88;100.00
5872;BME280;2962;51.312;7.378;2022-07-06T04:42:55;98300.88;;;10.95;100.00
5872;BME280;2962;51.312;7.378;2022-07-06T04:45:20;98310.22;;;11.10;100.00
5872;BME280;2962;51.312;7.378;2022-07-06T04:47:46;98305.06;;;11.20;100.00
5872;BME280;2962;51.312;7.378;2022-07-06T04:50:12;98297.75;;;11.09;100.00
5872;BME280;2962;51.312;7.378;2022-07-06T04:52:37;98305.84;;;11.21;100.00
5872;BME280;2962;51.312;7.378;2022-07-06T04:55:03;98306.41;;;11.27;100.00
5872;BME280;2962;51.312;7.378;2022-07-06T04:57:31;98304.88;;;11.29;100.00
5872;BME280;2962;51.312;7.378;2022-07-06T04:59:56;98304.09;;;11.29;100.00
5872;BME280;2962;51.312;7.378;2022-07-06T05:02:22;98316.34;;;11.35;100.00
5872;BME280;2962;51.312;7.378;2022-07-06T05:04:47;98313.94;;;11.49;100.00
5872;BME280;2962;51.312;7.378;2022-07-06T05:07:12;98303.94;;;11.53;100.00
5872;BME280;2962;51.312;7.378;2022-07-06T05:09:38;98306.97;;;11.67;100.00
5872;BME280;2962;51.312;7.378;2022-07-06T05:12:03;98304.91;;;11.61;100.00
5872;BME280;2962;51.312;7.378;2022-07-06T05:14:28;98299.94;;;11.66;100.00
5872;BME280;2962;51.312;7.378;2022-07-06T05:16:54;98303.91;;;11.85;100.00
5872;BME280;2962;51.312;7.378;2022-07-06T05:19:19;98303.44;;;11.98;100.00
5872;BME280;2962;51.312;7.378;2022-07-06T05:21:44;98299.13;;;11.97;100.00
5872;BME280;2962;51.312;7.378;2022-07-06T05:24:09;98300.28;;;11.96;100.00
5872;BME280;2962;51.312;7.378;2022-07-06T05:26:35;98302.88;;;12.09;100.00
5872;BME280;2962;51.312;7.378;2022-07-06T05:29:00;98297.22;;;12.17;100.00
5872;BME280;2962;51.312;7.378;2022-07-06T05:31:25;98293.75;;;12.20;100.00
5872;BME280;2962;51.312;7.378;2022-07-06T05:33:51;98302.31;;;12.19;100.00
5872;BME280;2962;51.312;7.378;2022-07-06T05:36:16;98303.44;;;12.18;100.00
5872;BME280;2962;51.312;7.378;2022-07-06T05:38:41;98313.03;;;12.28;100.00
5872;BME280;2962;51.312;7.378;2022-07-06T05:41:07;98304.38;;;12.41;100.00
5872;BME280;2962;51.312;7.378;2022-07-06T05:43:35;98294.06;;;12.35;100.00
5872;BME280;2962;51.312;7.378;2022-07-06T05:46:01;98311.66;;;12.57;100.00
5872;BME280;2962;51.312;7.378;2022-07-06T05:48:26;98306.34;;;12.64;100.00
5872;BME280;2962;51.312;7.378;2022-07-06T05:51:10;98312.81;;;12.75;100.00
5872;BME280;2962;51.312;7.378;2022-07-06T05:53:35;98301.31;;;12.66;100.00
5872;BME280;2962;51.312;7.378;2022-07-06T05:56:00;98311.09;;;12.67;100.00
5872;BME280;2962;51.312;7.378;2022-07-06T05:58:25;98311.03;;;12.63;100.00
5872;BME280;2962;51.312;7.378;2022-07-06T06:00:51;98314.34;;;12.73;100.00
5872;BME280;2962;51.312;7.378;2022-07-06T06:03:17;98311.81;;;12.64;100.00
5872;BME280;2962;51.312;7.378;2022-07-06T06:05:42;98307.00;;;12.77;100.00
5872;BME280;2962;51.312;7.378;2022-07-06T06:08:07;98316.50;;;12.63;100.00
5872;BME280;2962;51.312;7.378;2022-07-06T06:10:33;98320.38;;;12.62;100.00
5872;BME280;2962;51.312;7.378;2022-07-06T06:12:58;98330.03;;;12.56;100.00
5872;BME280;2962;51.312;7.378;2022-07-06T06:15:23;98321.19;;;12.63;100.00
5872;BME280;2962;51.312;7.378;2022-07-06T06:17:49;98323.66;;;12.91;100.00
5872;BME280;2962;51.312;7.378;2022-07-06T06:20:14;98324.66;;;13.02;100.00
5872;BME280;2962;51.312;7.378;2022-07-06T06:22:50;98324.88;;;13.13;100.00
5872;BME280;2962;51.312;7.378;2022-07-06T06:25:18;98325.75;;;13.40;100.00
5872;BME280;2962;51.312;7.378;2022-07-06T06:27:44;98324.44;;;13.30;100.00
5872;BME280;2962;51.312;7.378;2022-07-06T06:30:11;98336.72;;;13.20;100.00
5872;BME280;2962;51.312;7.378;2022-07-06T06:32:36;98330.69;;;13.31;100.00
5872;BME280;2962;51.312;7.378;2022-07-06T06:35:03;98330.88;;;12.99;100.00
5872;BME280;2962;51.312;7.378;2022-07-06T06:37:28;98329.50;;;12.89;100.00
5872;BME280;2962;51.312;7.378;2022-07-06T06:39:53;98336.63;;;12.94;100.00
5872;BME280;2962;51.312;7.378;2022-07-06T06:42:19;98326.91;;;12.97;100.00
5872;BME280;2962;51.312;7.378;2022-07-06T06:44:44;98323.94;;;13.25;100.00
5872;BME280;2962;51.312;7.378;2022-07-06T06:47:09;98326.78;;;13.55;100.00
5872;BME280;2962;51.312;7.378;2022-07-06T06:49:34;98334.03;;;13.66;100.00
5872;BME280;2962;51.312;7.378;2022-07-06T06:52:00;98330.66;;;13.77;100.00
5872;BME280;2962;51.312;7.378;2022-07-06T06:54:25;98328.19;;;13.45;100.00
5872;BME280;2962;51.312;7.378;2022-07-06T06:56:50;98331.16;;;13.36;100.00
5872;BME280;2962;51.312;7.378;2022-07-06T06:59:16;98339.38;;;13.36;100.00
5872;BME280;2962;51.312;7.378;2022-07-06T07:01:41;98336.28;;;13.38;100.00
5872;BME280;2962;51.312;7.378;2022-07-06T07:04:06;98326.19;;;13.42;100.00
5872;BME280;2962;51.312;7.378;2022-07-06T07:06:32;98339.69;;;13.54;100.00
5872;BME280;2962;51.312;7.378;2022-07-06T07:08:57;98339.94;;;13.68;100.00
5872;BME280;2962;51.312;7.378;2022-07-06T07:11:22;98340.13;;;13.83;100.00
5872;BME280;2962;51.312;7.378;2022-07-06T07:13:48;98339.03;;;13.87;100.00
5872;BME280;2962;51.312;7.378;2022-07-06T07:16:13;98343.38;;;13.88;100.00
5872;BME280;2962;51.312;7.378;2022-07-06T07:18:38;98346.75;;;14.05;100.00
5872;BME280;2962;51.312;7.378;2022-07-06T07:21:04;98336.13;;;14.30;100.00
5872;BME280;2962;51.312;7.378;2022-07-06T07:23:29;98338.50;;;14.58;100.00
5872;BME280;2962;51.312;7.378;2022-07-06T07:25:55;98340.28;;;14.77;100.00
5872;BME280;2962;51.312;7.378;2022-07-06T07:28:20;98342.75;;;15.23;100.00
5872;BME280;2962;51.312;7.378;2022-07-06T07:30:45;98346.31;;;15.27;100.00
5872;BME280;2962;51.312;7.378;2022-07-06T07:33:10;98350.63;;;15.28;100.00
5872;BME280;2962;51.312;7.378;2022-07-06T07:35:36;98342.13;;;14.99;100.00
5872;BME280;2962;51.312;7.378;2022-07-06T07:38:01;98345.03;;;14.50;100.00
5872;BME280;2962;51.312;7.378;2022-07-06T07:40:26;98350.53;;;14.23;100.00
5872;BME280;2962;51.312;7.378;2022-07-06T07:42:52;98353.94;;;14.16;100.00
5872;BME280;2962;51.312;7.378;2022-07-06T07:45:17;98349.88;;;14.33;100.00
5872;BME280;2962;51.312;7.378;2022-07-06T07:47:43;98358.38;;;14.25;100.00
5872;BME280;2962;51.312;7.378;2022-07-06T07:50:08;98360.50;;;14.08;100.00
5872;BME280;2962;51.312;7.378;2022-07-06T07:52:34;98360.28;;;14.21;100.00
5872;BME280;2962;51.312;7.378;2022-07-06T07:54:59;98358.59;;;14.12;100.00
5872;BME280;2962;51.312;7.378;2022-07-06T07:57:25;98352.59;;;14.30;100.00
5872;BME280;2962;51.312;7.378;2022-07-06T07:59:50;98345.44;;;14.52;100.00
5872;BME280;2962;51.312;7.378;2022-07-06T08:02:15;98350.19;;;14.55;100.00
5872;BME280;2962;51.312;7.378;2022-07-06T08:04:41;98355.34;;;14.60;100.00
5872;BME280;2962;51.312;7.378;2022-07-06T08:07:06;98359.53;;;14.50;100.00
5872;BME280;2962;51.312;7.378;2022-07-06T08:09:32;98360.00;;;14.29;100.00
5872;BME280;2962;51.312;7.378;2022-07-06T08:11:58;98348.00;;;14.11;100.00
5872;BME280;2962;51.312;7.378;2022-07-06T08:14:24;98362.13;;;14.13;100.00
5872;BME280;2962;51.312;7.378;2022-07-06T08:16:49;98358.59;;;14.12;100.00
5872;BME280;2962;51.312;7.378;2022-07-06T08:19:14;98363.28;;;14.12;100.00
5872;BME280;2962;51.312;7.378;2022-07-06T08:21:41;98356.59;;;14.09;100.00
5872;BME280;2962;51.312;7.378;2022-07-06T08:24:06;98367.81;;;14.27;100.00
5872;BME280;2962;51.312;7.378;2022-07-06T08:26:32;98368.38;;;14.13;100.00
5872;BME280;2962;51.312;7.378;2022-07-06T08:28:58;98355.72;;;14.32;100.00
5872;BME280;2962;51.312;7.378;2022-07-06T08:31:24;98358.19;;;14.67;100.00
5872;BME280;2962;51.312;7.378;2022-07-06T08:33:49;98357.78;;;14.65;100.00
5872;BME280;2962;51.312;7.378;2022-07-06T08:36:17;98347.25;;;14.71;100.00
5872;BME280;2962;51.312;7.378;2022-07-06T08:38:42;98351.94;;;14.70;100.00
5872;BME280;2962;51.312;7.378;2022-07-06T08:41:07;98346.34;;;14.59;100.00
5872;BME280;2962;51.312;7.378;2022-07-06T08:43:34;98347.91;;;14.60;100.00
5872;BME280;2962;51.312;7.378;2022-07-06T08:46:00;98350.34;;;14.39;100.00
5872;BME280;2962;51.312;7.378;2022-07-06T08:48:27;98355.94;;;14.46;100.00
5872;BME280;2962;51.312;7.378;2022-07-06T08:50:55;98347.19;;;14.37;100.00
5872;BME280;2962;51.312;7.378;2022-07-06T08:53:20;98351.41;;;14.31;100.00
5872;BME280;2962;51.312;7.378;2022-07-06T08:55:47;98350.03;;;14.44;100.00
5872;BME280;2962;51.312;7.378;2022-07-06T08:58:14;98344.13;;;14.42;100.00
5872;BME280;2962;51.312;7.378;2022-07-06T09:00:39;98355.88;;;14.69;100.00
5872;BME280;2962;51.312;7.378;2022-07-06T09:03:05;98364.75;;;14.93;100.00
5872;BME280;2962;51.312;7.378;2022-07-06T09:05:32;98364.25;;;15.17;100.00
5872;BME280;2962;51.312;7.378;2022-07-06T09:07:58;98353.06;;;15.36;100.00
5872;BME280;2962;51.312;7.378;2022-07-06T09:10:24;98358.03;;;15.65;100.00
5872;BME280;2962;51.312;7.378;2022-07-06T09:12:50;98350.88;;;16.01;100.00
5872;BME280;2962;51.312;7.378;2022-07-06T09:15:15;98367.34;;;15.97;100.00
5872;BME280;2962;51.312;7.378;2022-07-06T09:17:42;98358.31;;;15.97;100.00
5872;BME280;2962;51.312;7.378;2022-07-06T09:20:12;98363.47;;;16.05;100.00
5872;BME280;2962;51.312;7.378;2022-07-06T09:22:38;98366.59;;;16.00;100.00
5872;BME280;2962;51.312;7.378;2022-07-06T09:27:40;98352.81;;;16.66;100.00
5872;BME280;2962;51.312;7.378;2022-07-06T09:30:07;98354.19;;;17.12;100.00
5872;BME280;2962;51.312;7.378;2022-07-06T09:32:45;98349.94;;;17.43;100.00
5872;BME280;2962;51.312;7.378;2022-07-06T09:35:24;98341.28;;;18.16;100.00
5872;BME280;2962;51.312;7.378;2022-07-06T09:38:00;98347.63;;;17.84;100.00
5872;BME280;2962;51.312;7.378;2022-07-06T09:40:26;98352.25;;;17.19;100.00
5872;BME280;2962;51.312;7.378;2022-07-06T09:43:27;98349.63;;;16.53;100.00
5872;BME280;2962;51.312;7.378;2022-07-06T09:45:54;98346.94;;;16.71;100.00
5872;BME280;2962;51.312;7.378;2022-07-06T09:48:22;98354.63;;;17.24;100.00
5872;BME280;2962;51.312;7.378;2022-07-06T09:50:55;98345.63;;;17.45;100.00
5872;BME280;2962;51.312;7.378;2022-07-06T09:53:21;98356.25;;;17.57;100.00
5872;BME280;2962;51.312;7.378;2022-07-06T09:55:50;98350.34;;;17.41;100.00
5872;BME280;2962;51.312;7.378;2022-07-06T09:58:16;98354.69;;;17.53;100.00
5872;BME280;2962;51.312;7.378;2022-07-06T10:00:43;98360.53;;;17.37;100.00
5872;BME280;2962;51.312;7.378;2022-07-06T10:03:10;98354.97;;;17.12;100.00
5872;BME280;2962;51.312;7.378;2022-07-06T10:05:40;98349.94;;;16.38;100.00
5872;BME280;2962;51.312;7.378;2022-07-06T10:08:07;98358.50;;;16.25;100.00
5872;BME280;2962;51.312;7.378;2022-07-06T10:10:35;98354.56;;;16.23;100.00
5872;BME280;2962;51.312;7.378;2022-07-06T10:13:01;98358.81;;;16.13;100.00
5872;BME280;2962;51.312;7.378;2022-07-06T10:15:28;98354.09;;;16.14;100.00
5872;BME280;2962;51.312;7.378;2022-07-06T10:17:58;98351.34;;;16.14;100.00
5872;BME280;2962;51.312;7.378;2022-07-06T10:20:24;98352.72;;;16.45;100.00
5872;BME280;2962;51.312;7.378;2022-07-06T10:22:53;98353.75;;;16.92;100.00
5872;BME280;2962;51.312;7.378;2022-07-06T10:25:19;98347.19;;;17.71;100.00
5872;BME280;2962;51.312;7.378;2022-07-06T10:27:46;98344.34;;;18.53;100.00
5872;BME280;2962;51.312;7.378;2022-07-06T10:30:14;98348.09;;;19.02;100.00
5872;BME280;2962;51.312;7.378;2022-07-06T10:32:42;98351.84;;;18.53;100.00
5872;BME280;2962;51.312;7.378;2022-07-06T10:35:08;98350.34;;;18.13;100.00
5872;BME280;2962;51.312;7.378;2022-07-06T10:37:34;98349.16;;;17.56;100.00
5872;BME280;2962;51.312;7.378;2022-07-06T10:39:59;98342.84;;;17.52;100.00
5872;BME280;2962;51.312;7.378;2022-07-06T10:42:50;98345.22;;;17.57;100.00
5872;BME280;2962;51.312;7.378;2022-07-06T10:53:10;98341.22;;;19.32;100.00
5872;BME280;2962;51.312;7.378;2022-07-06T10:55:37;98353.75;;;19.47;100.00
5872;BME280;2962;51.312;7.378;2022-07-06T10:58:03;98354.56;;;19.41;100.00
5872;BME280;2962;51.312;7.378;2022-07-06T11:00:51;98344.25;;;18.82;100.00
5872;BME280;2962;51.312;7.378;2022-07-06T11:08:48;98344.28;;;18.75;100.00
5872;BME280;2962;51.312;7.378;2022-07-06T11:11:17;98343.00;;;18.97;100.00
5872;BME280;2962;51.312;7.378;2022-07-06T11:16:13;98350.66;;;20.35;100.00
5872;BME280;2962;51.312;7.378;2022-07-06T11:18:46;98345.47;;;19.99;100.00
5872;BME280;2962;51.312;7.378;2022-07-06T11:21:22;98352.19;;;18.66;100.00
5872;BME280;2962;51.312;7.378;2022-07-06T11:23:49;98334.56;;;18.17;100.00
5872;BME280;2962;51.312;7.378;2022-07-06T11:26:16;98343.69;;;17.85;100.00
5872;BME280;2962;51.312;7.378;2022-07-06T11:28:45;98347.22;;;17.82;100.00
5872;BME280;2962;51.312;7.378;2022-07-06T11:31:10;98339.72;;;18.00;100.00
5872;BME280;2962;51.312;7.378;2022-07-06T11:33:35;98350.34;;;18.16;100.00
5872;BME280;2962;51.312;7.378;2022-07-06T11:36:15;98352.97;;;18.73;100.00
5872;BME280;2962;51.312;7.378;2022-07-06T11:38:41;98340.72;;;19.44;100.00
5872;BME280;2962;51.312;7.378;2022-07-06T11:41:07;98338.38;;;19.46;100.00
5872;BME280;2962;51.312;7.378;2022-07-06T11:43:32;98340.25;;;20.46;100.00
5872;BME280;2962;51.312;7.378;2022-07-06T11:45:58;98352.69;;;20.69;98.76
5872;BME280;2962;51.312;7.378;2022-07-06T11:48:23;98338.50;;;20.94;100.00
5872;BME280;2962;51.312;7.378;2022-07-06T11:51:02;98345.56;;;21.83;93.30
5872;BME280;2962;51.312;7.378;2022-07-06T11:53:28;98347.31;;;21.47;87.48
5872;BME280;2962;51.312;7.378;2022-07-06T11:55:53;98339.16;;;22.73;78.48
5872;BME280;2962;51.312;7.378;2022-07-06T11:58:23;98334.13;;;23.77;66.80
5872;BME280;2962;51.312;7.378;2022-07-06T12:01:10;98340.09;;;23.75;64.42
5872;BME280;2962;51.312;7.378;2022-07-06T12:03:36;98347.00;;;22.98;65.50
5872;BME280;2962;51.312;7.378;2022-07-06T12:06:03;98347.91;;;22.08;73.07
5872;BME280;2962;51.312;7.378;2022-07-06T12:08:29;98335.44;;;21.46;79.56
5872;BME280;2962;51.312;7.378;2022-07-06T12:10:55;98335.94;;;20.80;93.01
5872;BME280;2962;51.312;7.378;2022-07-06T12:13:21;98341.03;;;20.09;95.73
5872;BME280;2962;51.312;7.378;2022-07-06T12:15:46;98341.13;;;20.36;97.03
5872;BME280;2962;51.312;7.378;2022-07-06T12:18:11;98336.25;;;20.85;97.65
5872;BME280;2962;51.312;7.378;2022-07-06T12:20:37;98334.03;;;20.73;94.29
5872;BME280;2962;51.312;7.378;2022-07-06T12:23:06;98332.69;;;20.54;91.72
5872;BME280;2962;51.312;7.378;2022-07-06T12:25:34;98331.13;;;20.12;97.59
5872;BME280;2962;51.312;7.378;2022-07-06T12:28:00;98326.31;;;19.74;100.00
5872;BME280;2962;51.312;7.378;2022-07-06T12:30:25;98326.25;;;19.30;100.00
5872;BME280;2962;51.312;7.378;2022-07-06T12:35:38;98313.22;;;19.82;100.00
5872;BME280;2962;51.312;7.378;2022-07-06T12:38:03;98311.03;;;20.04;100.00
5872;BME280;2962;51.312;7.378;2022-07-06T12:40:29;98313.31;;;19.71;100.00
5872;BME280;2962;51.312;7.378;2022-07-06T12:42:54;98309.69;;;19.30;100.00
5872;BME280;2962;51.312;7.378;2022-07-06T12:45:26;98308.09;;;19.28;100.00
5872;BME280;2962;51.312;7.378;2022-07-06T12:48:03;98316.38;;;19.25;100.00
5872;BME280;2962;51.312;7.378;2022-07-06T12:50:38;98308.94;;;19.22;100.00
5872;BME280;2962;51.312;7.378;2022-07-06T12:53:05;98302.72;;;19.59;100.00
5872;BME280;2962;51.312;7.378;2022-07-06T12:55:31;98303.50;;;19.60;100.00
5872;BME280;2962;51.312;7.378;2022-07-06T12:57:57;98295.63;;;19.58;100.00
5872;BME280;2962;51.312;7.378;2022-07-06T13:00:23;98294.81;;;19.65;100.00
5872;BME280;2962;51.312;7.378;2022-07-06T13:02:51;98294.28;;;20.22;95.00
5872;BME280;2962;51.312;7.378;2022-07-06T13:05:23;98299.25;;;20.72;90.05
5872;BME280;2962;51.312;7.378;2022-07-06T13:07:57;98291.09;;;21.46;82.93
5872;BME280;2962;51.312;7.378;2022-07-06T13:10:24;98277.84;;;22.64;77.57
5872;BME280;2962;51.312;7.378;2022-07-06T13:12:50;98291.84;;;23.66;67.79
5872;BME280;2962;51.312;7.378;2022-07-06T13:15:16;98286.97;;;23.37;66.06
5872;BME280;2962;51.312;7.378;2022-07-06T13:17:42;98291.72;;;22.84;70.95
5872;BME280;2962;51.312;7.378;2022-07-06T13:20:10;98285.03;;;23.18;73.59
5872;BME280;2962;51.312;7.378;2022-07-06T13:22:36;98286.88;;;23.57;72.75
5872;BME280;2962;51.312;7.378;2022-07-06T13:25:02;98287.13;;;22.37;80.43
5872;BME280;2962;51.312;7.378;2022-07-06T13:27:28;98285.38;;;22.24;73.38
5872;BME280;2962;51.312;7.378;2022-07-06T13:29:54;98279.13;;;22.39;78.44